Time;durP1;ratioP1;P1;durP2;ratioP2;P2;SDS_P1;SDS_P2;PMS_P1;PMS_P2;Temp;Humidity;BMP_temperature;BMP_pressure;BME280_temperature;BME280_humidity;BME280_pressure;Samples;Min_cycle;Max_cycle;Signal;HPM_P1;HPM_P2
2021/04/29 00:01:43;;;;;;;58.80;28.75;;;12.40;99.90;;;;;;5061059;28;20021;-69
2021/04/29 00:04:13;;;;;;;59.88;28.42;;;12.50;99.90;;;;;;5062663;28;20025;-72
2021/04/29 00:06:39;;;;;;;69.15;37.55;;;12.40;99.90;;;;;;5061037;28;20159;-71
2021/04/29 00:09:06;;;;;;;67.47;29.98;;;12.50;99.90;;;;;;5061995;28;20375;-69
2021/04/29 00:11:34;;;;;;;58.63;28.60;;;12.50;99.90;;;;;;5061339;28;20064;-72
2021/04/29 00:14:00;;;;;;;62.35;27.98;;;12.50;99.90;;;;;;5061522;28;20025;-71
2021/04/29 00:16:27;;;;;;;77.07;38.72;;;12.50;99.90;;;;;;5060621;28;20472;-74
2021/04/29 00:18:53;;;;;;;99.40;52.90;;;12.40;99.90;;;;;;5059333;28;20446;-69
2021/04/29 00:21:19;;;;;;;87.03;43.17;;;12.40;99.90;;;;;;5061584;28;20021;-73
2021/04/29 00:23:45;;;;;;;132.80;70.15;;;12.40;99.90;;;;;;5061282;28;20009;-72
2021/04/29 00:26:11;;;;;;;91.18;45.25;;;12.40;99.90;;;;;;5061038;28;20040;-72
2021/04/29 00:28:37;;;;;;;92.65;44.90;;;12.40;99.90;;;;;;5035057;28;795613;-73
2021/04/29 00:31:03;;;;;;;77.10;39.67;;;12.30;99.90;;;;;;5064513;28;20115;-73
2021/04/29 00:33:29;;;;;;;80.38;45.25;;;12.30;99.90;;;;;;5064136;28;20025;-70
2021/04/29 00:35:59;;;;;;;57.03;31.25;;;12.40;99.90;;;;;;5064316;28;20155;-73
2021/04/29 00:38:26;;;;;;;80.07;43.08;;;12.30;99.90;;;;;;5064206;28;20527;-72
2021/04/29 00:40:52;;;;;;;63.40;30.83;;;12.30;99.90;;;;;;5063625;28;20048;-72
2021/04/29 00:43:18;;;;;;;66.00;33.90;;;12.30;99.90;;;;;;5062342;28;20017;-71
2021/04/29 00:45:45;;;;;;;57.70;29.00;;;12.30;99.90;;;;;;5062791;28;20099;-71
2021/04/29 00:48:12;;;;;;;89.53;57.17;;;12.40;99.90;;;;;;5062235;28;20083;-73
2021/04/29 00:50:39;;;;;;;51.13;25.05;;;12.40;99.90;;;;;;5063021;28;20025;-72
2021/04/29 00:53:05;;;;;;;56.67;31.52;;;12.30;99.90;;;;;;5063468;28;20103;-69
2021/04/29 00:55:32;;;;;;;95.03;53.40;;;12.40;99.90;;;;;;5064166;28;20055;-71
2021/04/29 00:57:58;;;;;;;68.10;39.92;;;12.40;99.90;;;;;;5063246;28;20025;-72
2021/04/29 01:00:25;;;;;;;80.55;49.75;;;12.40;99.90;;;;;;5064178;28;20475;-74
2021/04/29 01:02:59;;;;;;;49.88;26.42;;;12.40;99.90;;;;;;5063121;28;20018;-68
2021/04/29 01:05:37;;;;;;;45.13;24.60;;;12.40;99.90;;;;;;5064072;28;20023;-69
2021/04/29 01:08:44;;;;;;;58.83;35.47;;;12.40;99.90;;;;;;5063162;28;20024;-72
2021/04/29 01:11:24;;;;;;;51.22;23.92;;;12.40;99.90;;;;;;5053403;28;20044;-70
2021/04/29 01:13:56;;;;;;;49.35;30.20;;;12.40;99.90;;;;;;5063805;28;20056;-71
2021/04/29 01:16:25;;;;;;;52.17;32.08;;;12.40;99.90;;;;;;5058986;28;20049;-71
2021/04/29 01:18:53;;;;;;;77.60;48.33;;;12.40;99.90;;;;;;5062032;28;20021;-71
2021/04/29 01:21:20;;;;;;;44.47;25.23;;;12.40;99.90;;;;;;5060759;28;20025;-71
2021/04/29 01:24:34;;;;;;;62.58;38.35;;;12.50;99.90;;;;;;5062238;28;20147;-70
2021/04/29 20:47:40;;;;;;;44.25;27.45;;;18.90;99.90;;;;;;5215645;23;20092;-72
2021/04/29 20:50:07;;;;;;;41.78;29.10;;;18.90;99.90;;;;;;4976691;28;20114;-71
2021/04/29 20:52:33;;;;;;;35.65;22.98;;;18.90;99.90;;;;;;4976507;28;20027;-72
2021/04/29 20:54:59;;;;;;;30.92;22.02;;;18.90;99.90;;;;;;4959722;28;20015;-72
2021/04/29 20:57:25;;;;;;;33.95;19.77;;;18.90;99.90;;;;;;4976947;28;20110;-71
2021/04/29 20:59:51;;;;;;;27.30;18.02;;;18.80;99.90;;;;;;4976654;28;20408;-77
2021/04/29 21:02:17;;;;;;;26.15;18.02;;;18.80;99.90;;;;;;4976849;28;20118;-71
2021/04/29 21:04:45;;;;;;;25.00;16.65;;;18.80;99.90;;;;;;4976759;28;20452;-71
2021/04/29 21:07:13;;;;;;;26.05;16.67;;;18.70;99.90;;;;;;4959438;28;20023;-72
2021/04/29 21:09:39;;;;;;;24.75;16.00;;;18.70;99.90;;;;;;4976777;28;20547;-71
2021/04/29 21:12:06;;;;;;;21.13;14.18;;;18.60;99.90;;;;;;4959506;28;20383;-71
2021/04/29 21:14:34;;;;;;;21.17;14.65;;;18.60;99.90;;;;;;4976724;28;20022;-71
2021/04/29 21:17:01;;;;;;;24.45;14.80;;;18.60;99.90;;;;;;4976601;28;20029;-71
2021/04/29 21:19:27;;;;;;;23.17;15.38;;;18.60;99.90;;;;;;4977110;28;20026;-71
2021/04/29 21:21:53;;;;;;;24.02;15.75;;;18.60;99.90;;;;;;4976767;28;20038;-72
2021/04/29 21:24:19;;;;;;;25.67;15.40;;;18.50;99.90;;;;;;4976839;28;20081;-71
2021/04/29 21:26:47;;;;;;;23.55;15.52;;;18.50;99.90;;;;;;4959431;28;20027;-71
2021/04/29 21:29:14;;;;;;;27.08;16.73;;;18.40;99.90;;;;;;4977252;28;20420;-71
2021/04/29 21:31:40;;;;;;;24.73;16.48;;;18.40;99.90;;;;;;4960376;28;20031;-71
2021/04/29 21:34:05;;;;;;;25.27;14.52;;;18.40;99.90;;;;;;4977151;28;20019;-70
2021/04/29 21:36:31;;;;;;;19.40;13.73;;;18.30;99.90;;;;;;4977615;28;20065;-71
2021/04/29 21:39:06;;;;;;;20.50;13.40;;;18.20;99.90;;;;;;4977612;28;20096;-70
2021/04/29 21:41:33;;;;;;;19.80;14.55;;;18.20;99.90;;;;;;4976435;28;20049;-71
2021/04/29 21:43:58;;;;;;;21.10;14.25;;;18.20;99.90;;;;;;4958888;28;20415;-71
2021/04/29 21:46:26;;;;;;;23.42;15.20;;;18.10;99.90;;;;;;4975758;28;20039;-71
2021/04/29 21:48:56;;;;;;;22.83;14.55;;;18.10;99.90;;;;;;4976424;28;20062;-70
2021/04/29 21:51:24;;;;;;;21.42;14.98;;;18.10;99.90;;;;;;4976301;28;20058;-70
2021/04/29 21:53:56;;;;;;;21.65;14.82;;;18.10;99.90;;;;;;4976066;28;20034;-71
2021/04/29 21:56:23;;;;;;;22.42;14.55;;;18.10;99.90;;;;;;4976508;28;20034;-71
2021/04/29 21:58:49;;;;;;;23.85;14.23;;;18.00;99.90;;;;;;4976437;28;20408;-70
2021/04/29 22:01:18;;;;;;;23.23;14.48;;;17.90;99.90;;;;;;4977051;28;20025;-71
2021/04/29 22:03:44;;;;;;;19.98;13.85;;;17.90;99.90;;;;;;4974938;28;20033;-72
2021/04/29 22:06:12;;;;;;;18.40;14.00;;;17.90;99.90;;;;;;4976247;28;20027;-70
2021/04/29 22:08:39;;;;;;;20.95;13.85;;;17.90;99.90;;;;;;4958334;28;20546;-72
2021/04/29 22:11:05;;;;;;;19.92;13.75;;;17.90;99.90;;;;;;4976018;28;20031;-72
2021/04/29 22:13:35;;;;;;;22.20;14.60;;;18.00;99.90;;;;;;4958454;28;20295;-71
2021/04/29 22:16:02;;;;;;;24.55;15.48;;;17.90;99.90;;;;;;4958251;28;20030;-71
2021/04/29 22:18:29;;;;;;;22.67;15.40;;;17.80;99.90;;;;;;4975355;28;20070;-71
2021/04/29 22:20:55;;;;;;;27.08;15.27;;;17.70;99.90;;;;;;4975489;28;20085;-71
2021/04/29 22:23:21;;;;;;;24.77;15.80;;;17.60;99.90;;;;;;4958171;28;20412;-71
2021/04/29 22:25:47;;;;;;;23.52;16.48;;;17.60;99.90;;;;;;4975550;28;20090;-70
2021/04/29 22:28:13;;;;;;;25.42;17.20;;;17.50;99.90;;;;;;4975396;28;20055;-71
2021/04/29 22:30:42;;;;;;;26.88;16.65;;;17.40;99.90;;;;;;4975431;28;20054;-71
2021/04/29 22:33:10;;;;;;;23.48;16.98;;;17.30;99.90;;;;;;4975716;28;20022;-70
2021/04/29 22:35:36;;;;;;;28.17;18.27;;;17.40;99.90;;;;;;4975479;28;20015;-71
2021/04/29 22:38:02;;;;;;;27.10;17.70;;;17.40;99.90;;;;;;4975094;28;20543;-70
2021/04/29 22:40:30;;;;;;;33.38;19.90;;;17.30;99.90;;;;;;4975060;28;20022;-70
2021/04/29 22:42:56;;;;;;;22.00;16.83;;;17.30;99.90;;;;;;4957937;28;20023;-71
2021/04/29 22:45:22;;;;;;;32.47;21.05;;;17.30;99.90;;;;;;4975176;28;20025;-72
2021/04/29 22:47:48;;;;;;;38.53;25.73;;;17.30;99.90;;;;;;4974826;28;20053;-71
2021/04/29 22:50:16;;;;;;;38.30;26.13;;;17.30;99.90;;;;;;4975267;28;20041;-70
2021/04/29 22:52:44;;;;;;;39.10;26.52;;;17.30;99.90;;;;;;4975339;28;20027;-71
2021/04/29 22:55:12;;;;;;;35.85;25.25;;;17.30;99.90;;;;;;4975056;28;20018;-70
2021/04/29 22:57:38;;;;;;;35.53;25.63;;;17.30;99.90;;;;;;4975119;28;20027;-70
2021/04/29 23:00:10;;;;;;;40.28;26.88;;;17.20;99.90;;;;;;4975065;28;20034;-70
2021/04/29 23:02:37;;;;;;;42.25;27.90;;;17.20;99.90;;;;;;4974889;28;20018;-71
2021/04/29 23:05:04;;;;;;;39.58;27.27;;;17.20;99.90;;;;;;4957473;28;20033;-70
2021/04/29 23:07:30;;;;;;;42.45;28.08;;;17.10;99.90;;;;;;4975461;28;20027;-70
2021/04/29 23:09:56;;;;;;;38.30;26.90;;;17.10;99.90;;;;;;4974961;28;20025;-71
2021/04/29 23:12:22;;;;;;;34.50;22.30;;;17.10;99.90;;;;;;4975428;28;20023;-71
2021/04/29 23:14:51;;;;;;;32.53;21.40;;;17.20;99.90;;;;;;4957344;28;20027;-72
2021/04/29 23:17:17;;;;;;;28.85;19.25;;;17.30;99.90;;;;;;4957379;28;20109;-70
2021/04/29 23:19:43;;;;;;;31.63;20.48;;;17.20;99.90;;;;;;4957451;28;20050;-71
2021/04/29 23:22:12;;;;;;;32.28;21.10;;;17.10;99.90;;;;;;4974653;28;20465;-71
2021/04/29 23:24:38;;;;;;;28.55;20.80;;;17.00;99.90;;;;;;4974794;28;20027;-69
2021/04/29 23:27:05;;;;;;;29.10;20.60;;;16.90;99.90;;;;;;4974865;28;20037;-72
2021/04/29 23:29:34;;;;;;;31.13;20.85;;;16.90;99.90;;;;;;4975238;28;20117;-70
2021/04/29 23:32:00;;;;;;;26.55;19.08;;;16.80;99.90;;;;;;4957240;28;20051;-70
2021/04/29 23:34:26;;;;;;;25.70;18.35;;;16.80;99.90;;;;;;4974632;28;20034;-71
2021/04/29 23:36:52;;;;;;;26.55;17.13;;;16.80;99.90;;;;;;4974648;28;20058;-71
2021/04/29 23:39:18;;;;;;;23.40;17.73;;;16.90;99.90;;;;;;4974734;28;20050;-70
2021/04/29 23:41:43;;;;;;;32.30;21.10;;;16.80;99.90;;;;;;4974487;28;20019;-72
2021/04/29 23:44:09;;;;;;;34.95;22.48;;;16.80;99.90;;;;;;4974529;28;20093;-70
2021/04/29 23:46:36;;;;;;;31.90;23.55;;;16.70;99.90;;;;;;4974279;28;20481;-71
2021/04/29 23:49:03;;;;;;;32.15;23.48;;;16.70;99.90;;;;;;4974505;28;20022;-71
2021/04/29 23:51:29;;;;;;;25.95;20.40;;;16.70;99.90;;;;;;4974750;28;20046;-71
2021/04/29 23:53:55;;;;;;;30.45;20.92;;;16.70;99.90;;;;;;4974579;28;20074;-71
2021/04/29 23:56:22;;;;;;;25.48;18.23;;;16.70;99.90;;;;;;4974368;28;20384;-71
2021/04/29 23:58:48;;;;;;;27.48;19.20;;;16.70;99.90;;;;;;4974986;28;20027;-69
